Time;durP1;ratioP1;P1;durP2;ratioP2;P2;SDS_P1;SDS_P2;PMS_P1;PMS_P2;Temp;Humidity;BMP_temperature;BMP_pressure;BME280_temperature;BME280_humidity;BME280_pressure;Samples;Min_cycle;Max_cycle;Signal;HPM_P1;HPM_P2
2023/12/13 00:02:16;;;;;;;40.10;22.10;;;;;;;-147.86;100.00;46123.36;105869;1254;72629;-46
2023/12/13 00:04:43;;;;;;;41.80;22.50;;;;;;;-147.86;100.00;46123.36;105843;1254;61866;-43
2023/12/13 00:07:10;;;;;;;39.10;20.70;;;;;;;-147.86;100.00;46123.75;105937;1254;60136;-45
2023/12/13 00:09:38;;;;;;;38.20;20.50;;;;;;;-147.86;100.00;46121.79;105857;1256;73090;-47
2023/12/13 00:12:04;;;;;;;45.90;21.60;;;;;;;-147.86;100.00;46122.96;105935;1256;64673;-50
2023/12/13 00:14:31;;;;;;;41.20;21.70;;;;;;;-147.86;100.00;46124.14;105876;1254;72608;-51
2023/12/13 00:16:58;;;;;;;45.70;21.70;;;;;;;-147.86;100.00;46124.14;105903;1256;62007;-52
2023/12/13 00:19:25;;;;;;;43.70;21.50;;;;;;;-147.86;100.00;46121.01;105884;1254;60279;-47
2023/12/13 00:21:52;;;;;;;41.90;22.00;;;;;;;-147.86;100.00;46121.40;105935;1254;72965;-48
2023/12/13 00:24:19;;;;;;;48.80;26.50;;;;;;;-147.86;100.00;46121.79;105900;1257;65558;-46
2023/12/13 00:26:49;;;;;;;50.70;23.90;;;;;;;-147.86;100.00;46121.01;105894;1254;72610;-50
2023/12/13 00:29:15;;;;;;;46.10;22.50;;;;;;;-147.86;100.00;46119.44;105905;1257;61161;-49
2023/12/13 00:31:42;;;;;;;45.00;22.30;;;;;;;-147.86;100.00;46119.44;105861;1252;60483;-48
2023/12/13 00:34:09;;;;;;;41.20;22.30;;;;;;;-147.86;100.00;46119.83;105922;1252;72998;-45
2023/12/13 00:36:36;;;;;;;43.60;22.00;;;;;;;-147.86;100.00;46118.66;105918;1254;64725;-44
2023/12/13 00:39:03;;;;;;;44.60;22.40;;;;;;;-147.86;100.00;46121.40;105979;1253;72648;-43
2023/12/13 00:41:30;;;;;;;42.10;20.70;;;;;;;-147.86;100.00;46122.18;105913;1256;60808;-48
2023/12/13 00:43:57;;;;;;;48.30;22.90;;;;;;;-147.86;100.00;46121.79;105937;1252;60273;-45
2023/12/13 00:46:24;;;;;;;41.40;22.00;;;;;;;-147.86;100.00;46119.84;105906;1257;72999;-49
2023/12/13 00:48:51;;;;;;;57.30;23.60;;;;;;;-147.86;100.00;46118.66;105913;1257;65281;-49
2023/12/13 00:51:19;;;;;;;46.80;24.40;;;;;;;-147.86;100.00;46119.44;105897;1254;72625;-46
2023/12/13 00:53:46;;;;;;;47.70;23.60;;;;;;;-147.86;100.00;46118.66;105949;1256;61094;-49
2023/12/13 00:56:13;;;;;;;43.10;23.20;;;;;;;-147.86;100.00;46117.88;105905;1254;60571;-49
2023/12/13 00:58:40;;;;;;;45.00;22.90;;;;;;;-147.86;100.00;46117.88;105846;1256;73658;-48
2023/12/13 01:01:07;;;;;;;42.40;22.70;;;;;;;-147.86;100.00;46118.26;105911;1257;64571;-49
2023/12/13 01:03:34;;;;;;;41.00;22.10;;;;;;;-147.86;100.00;46119.45;105910;1254;72602;-48
2023/12/13 01:06:01;;;;;;;39.70;22.40;;;;;;;-147.86;100.00;46117.87;105913;1256;61151;-47
2023/12/13 01:08:28;;;;;;;48.80;23.70;;;;;;;-147.86;100.00;46117.48;105933;1254;60479;-45
2023/12/13 01:10:55;;;;;;;48.50;23.30;;;;;;;-147.86;100.00;46117.09;105916;1253;73777;-47
2023/12/13 01:13:22;;;;;;;48.00;22.90;;;;;;;-147.86;100.00;46118.27;105923;1256;65360;-52
2023/12/13 01:15:49;;;;;;;41.00;22.00;;;;;;;-147.86;100.00;46115.52;105950;1254;72601;-50
2023/12/13 01:18:16;;;;;;;43.90;21.70;;;;;;;-147.86;100.00;46116.30;105928;1256;60351;-47
2023/12/13 01:20:43;;;;;;;41.40;21.10;;;;;;;-147.86;100.00;46117.48;105912;1254;60479;-46
2023/12/13 01:23:10;;;;;;;39.60;20.70;;;;;;;-147.86;100.00;46115.13;105867;1254;72879;-47
2023/12/13 01:25:36;;;;;;;37.30;19.90;;;;;;;-147.86;100.00;46116.70;105916;1256;65573;-48
2023/12/13 01:28:03;;;;;;;37.20;19.00;;;;;;;-147.86;100.00;46116.70;105908;1254;72831;-47
2023/12/13 01:30:30;;;;;;;36.70;19.60;;;;;;;-147.86;100.00;46115.13;105956;1254;61532;-49
2023/12/13 01:32:57;;;;;;;37.20;19.50;;;;;;;-147.86;100.00;46115.91;105640;1254;60466;-47
2023/12/13 01:35:24;;;;;;;32.90;18.00;;;;;;;-147.86;100.00;46115.13;105897;1256;73824;-48
2023/12/13 01:37:51;;;;;;;40.80;20.10;;;;;;;-147.86;100.00;46114.35;105892;1256;65451;-43
2023/12/13 01:40:18;;;;;;;37.80;19.70;;;;;;;-147.86;100.00;46116.30;105904;1256;72534;-47
2023/12/13 01:42:45;;;;;;;37.50;19.70;;;;;;;-147.86;100.00;46115.52;105884;1256;60392;-47
2023/12/13 01:45:12;;;;;;;34.80;18.40;;;;;;;-147.86;100.00;46111.99;105947;1254;60447;-47
2023/12/13 01:47:39;;;;;;;34.40;18.40;;;;;;;-147.86;100.00;46113.56;105683;1259;73856;-50
2023/12/13 01:50:07;;;;;;;39.90;19.00;;;;;;;-147.86;100.00;46113.17;105869;1256;64626;-47
2023/12/13 01:52:35;;;;;;;32.70;17.50;;;;;;;-147.86;100.00;46113.56;105854;1259;72157;-49
2023/12/13 01:55:02;;;;;;;34.50;18.10;;;;;;;-147.86;100.00;46115.13;105930;1258;60361;-43
2023/12/13 01:57:29;;;;;;;33.30;18.70;;;;;;;-147.86;100.00;46113.55;105723;1254;60296;-50
2023/12/13 01:59:56;;;;;;;34.90;17.60;;;;;;;-147.86;100.00;46114.35;105826;1254;73791;-46
2023/12/13 02:02:23;;;;;;;34.00;17.90;;;;;;;-147.86;100.00;46113.17;105868;1253;65344;-48
2023/12/13 02:04:50;;;;;;;31.80;17.50;;;;;;;-147.86;100.00;46111.21;105883;1254;72455;-51
2023/12/13 02:07:17;;;;;;;36.70;18.20;;;;;;;-147.86;100.00;46115.91;105683;1259;61855;-46
2023/12/13 02:09:44;;;;;;;33.30;18.20;;;;;;;-147.86;100.00;46113.57;105795;1257;61082;-46
2023/12/13 02:12:11;;;;;;;39.80;19.50;;;;;;;-147.86;100.00;46112.78;105831;1257;73842;-45
2023/12/13 02:14:38;;;;;;;37.30;18.90;;;;;;;-147.86;100.00;46113.17;105781;1257;64456;-48
2023/12/13 02:17:05;;;;;;;37.10;18.90;;;;;;;-147.86;100.00;46112.77;105775;1254;72638;-45
2023/12/13 02:19:32;;;;;;;40.90;20.10;;;;;;;-147.86;100.00;46113.96;105835;1256;61287;-48
2023/12/13 02:21:58;;;;;;;33.50;17.20;;;;;;;-147.86;100.00;46112.00;105769;1254;60450;-51
2023/12/13 02:24:25;;;;;;;35.40;18.60;;;;;;;-147.86;100.00;46112.38;105773;1257;73777;-45
2023/12/13 02:26:54;;;;;;;42.20;18.80;;;;;;;-147.86;100.00;46113.56;105651;1259;65326;-45
2023/12/13 02:29:21;;;;;;;41.30;20.00;;;;;;;-147.86;100.00;46113.96;105772;1259;72603;-46
2023/12/13 02:31:48;;;;;;;40.50;19.60;;;;;;;-147.86;100.00;46112.78;105865;1256;61481;-48
2023/12/13 02:34:15;;;;;;;39.40;19.50;;;;;;;-147.86;100.00;46111.99;105938;1254;60530;-45
2023/12/13 02:36:45;;;;;;;38.30;18.80;;;;;;;-147.86;100.00;46111.60;105852;1256;73653;-46
2023/12/13 02:39:12;;;;;;;34.90;19.40;;;;;;;-147.86;100.00;46112.39;105848;1256;64696;-48
2023/12/13 02:41:41;;;;;;;38.10;19.60;;;;;;;-147.86;100.00;46110.04;105810;1254;72636;-47
2023/12/13 02:44:08;;;;;;;37.70;19.10;;;;;;;-147.86;100.00;46112.00;105742;1256;60405;-51
2023/12/13 02:46:34;;;;;;;39.80;19.70;;;;;;;-147.86;100.00;46111.21;105805;1254;60799;-47
2023/12/13 02:49:01;;;;;;;37.10;20.20;;;;;;;-147.86;100.00;46113.56;105778;1258;73730;-47
2023/12/13 02:51:28;;;;;;;43.60;21.00;;;;;;;-147.86;100.00;46110.82;105884;1257;65474;-49
2023/12/13 02:53:55;;;;;;;37.00;19.20;;;;;;;-147.86;100.00;46110.82;105851;1253;72635;-48
2023/12/13 02:56:22;;;;;;;38.40;20.10;;;;;;;-147.86;100.00;46111.99;105825;1258;60373;-49
2023/12/13 02:58:49;;;;;;;41.80;19.90;;;;;;;-147.86;100.00;46112.39;105864;1257;60437;-44
2023/12/13 03:01:16;;;;;;;36.30;18.80;;;;;;;-147.86;100.00;46108.47;105788;1257;73834;-50
2023/12/13 03:03:43;;;;;;;47.70;22.40;;;;;;;-147.86;100.00;46110.43;105832;1254;64822;-47
2023/12/13 03:06:10;;;;;;;42.90;22.10;;;;;;;-147.86;100.00;46111.60;105778;1257;71616;-50
2023/12/13 03:08:37;;;;;;;40.60;20.20;;;;;;;-147.86;100.00;46110.03;105814;1257;61022;-47
2023/12/13 03:11:04;;;;;;;39.50;20.30;;;;;;;-147.86;100.00;46108.07;105806;1254;60520;-45
2023/12/13 03:13:31;;;;;;;40.90;21.80;;;;;;;-147.86;100.00;46108.07;105843;1258;73859;-44
2023/12/13 03:15:58;;;;;;;40.30;21.30;;;;;;;-147.86;100.00;46108.47;105804;1258;65428;-48
2023/12/13 03:18:25;;;;;;;47.30;22.50;;;;;;;-147.86;100.00;46106.90;105789;1254;72492;-48
2023/12/13 03:20:54;;;;;;;45.70;22.50;;;;;;;-147.86;100.00;46110.43;105813;1257;61115;-48
2023/12/13 03:23:20;;;;;;;42.60;23.10;;;;;;;-147.86;100.00;46108.47;105849;1254;60415;-46
2023/12/13 03:25:47;;;;;;;46.60;23.80;;;;;;;-147.86;100.00;46107.68;105892;1254;72683;-48
2023/12/13 03:28:14;;;;;;;49.10;25.40;;;;;;;-147.86;100.00;46109.25;105807;1259;65449;-49
2023/12/13 03:30:42;;;;;;;56.70;25.30;;;;;;;-147.86;100.00;46108.07;105868;1254;72553;-46
2023/12/13 03:33:09;;;;;;;48.00;24.50;;;;;;;-147.86;100.00;46108.47;105828;1259;61216;-45
2023/12/13 03:35:36;;;;;;;42.90;23.30;;;;;;;-147.86;100.00;46108.07;105835;1254;60540;-46
2023/12/13 03:38:04;;;;;;;42.10;22.10;;;;;;;-147.86;100.00;46108.47;105827;1254;71620;-51
2023/12/13 03:40:31;;;;;;;44.40;20.70;;;;;;;-147.86;100.00;46108.08;105834;1256;64607;-46
2023/12/13 03:42:59;;;;;;;39.70;21.40;;;;;;;-147.86;100.00;46110.82;105903;1257;72651;-51
2023/12/13 03:45:26;;;;;;;37.40;20.10;;;;;;;-147.86;100.00;46109.64;105811;1257;60357;-48
2023/12/13 03:47:53;;;;;;;39.80;20.00;;;;;;;-147.86;100.00;46108.47;105831;1254;60473;-50
2023/12/13 03:50:20;;;;;;;46.60;21.60;;;;;;;-147.86;100.00;46107.29;105807;1254;73864;-48
2023/12/13 03:52:48;;;;;;;39.90;20.40;;;;;;;-147.86;100.00;46107.69;105889;1257;64559;-44
2023/12/13 03:55:15;;;;;;;34.60;19.00;;;;;;;-147.86;100.00;46107.29;105819;1257;72649;-45
2023/12/13 03:57:42;;;;;;;34.00;18.60;;;;;;;-147.86;100.00;46107.29;105836;1258;60370;-47
2023/12/13 04:00:11;;;;;;;41.30;20.40;;;;;;;-147.86;100.00;46107.29;105860;1254;60444;-48
2023/12/13 04:02:41;;;;;;;34.50;19.00;;;;;;;-147.86;100.00;46108.47;105809;1254;73561;-47
2023/12/13 04:05:08;;;;;;;39.70;20.60;;;;;;;-147.86;100.00;46107.69;105815;1257;65521;-50
2023/12/13 04:07:35;;;;;;;35.90;19.20;;;;;;;-147.86;100.00;46107.29;105856;1254;72507;-47
2023/12/13 04:10:04;;;;;;;43.60;19.80;;;;;;;-147.86;100.00;46108.86;105822;1254;62103;-45
2023/12/13 04:12:32;;;;;;;36.10;19.20;;;;;;;-147.86;100.00;46108.08;105851;1254;60412;-47
2023/12/13 04:14:59;;;;;;;35.40;19.90;;;;;;;-147.86;100.00;46105.73;105813;1257;73862;-48
2023/12/13 04:17:25;;;;;;;34.60;18.90;;;;;;;-147.86;100.00;46106.90;105802;1257;65406;-44
2023/12/13 04:19:54;;;;;;;36.40;18.40;;;;;;;-147.86;100.00;46107.68;105815;1259;72628;-49
2023/12/13 04:22:21;;;;;;;37.30;18.00;;;;;;;-147.86;100.00;46108.86;105818;1259;61155;-45
2023/12/13 04:24:48;;;;;;;34.10;18.60;;;;;;;-147.86;100.00;46107.69;105807;1254;60428;-46
2023/12/13 04:27:15;;;;;;;36.90;20.50;;;;;;;-147.86;100.00;46107.29;105780;1257;73764;-45
2023/12/13 04:29:43;;;;;;;40.10;18.60;;;;;;;-147.86;100.00;46108.86;105844;1256;65311;-44
2023/12/13 04:32:10;;;;;;;38.00;20.00;;;;;;;-147.86;100.00;46107.29;105840;1259;71676;-49
2023/12/13 04:34:37;;;;;;;37.10;19.30;;;;;;;-147.86;100.00;46108.07;105805;1254;61023;-48
2023/12/13 04:37:04;;;;;;;38.30;20.30;;;;;;;-147.86;100.00;46106.51;105858;1253;60539;-48
2023/12/13 04:39:31;;;;;;;44.50;22.60;;;;;;;-147.86;100.00;46106.51;105823;1257;73912;-45
2023/12/13 04:41:57;;;;;;;44.80;22.00;;;;;;;-147.86;100.00;46109.25;105852;1259;64367;-48
2023/12/13 04:44:27;;;;;;;46.10;22.80;;;;;;;-147.86;100.00;46108.86;105842;1254;72673;-43
2023/12/13 04:46:55;;;;;;;47.60;22.70;;;;;;;-147.86;100.00;46106.12;105959;1258;61192;-45
2023/12/13 04:49:21;;;;;;;40.00;19.20;;;;;;;-147.86;100.00;46107.68;105856;1254;60460;-46
2023/12/13 04:51:48;;;;;;;38.70;20.20;;;;;;;-147.86;100.00;46106.11;105914;1254;73831;-45
2023/12/13 04:54:16;;;;;;;31.80;17.30;;;;;;;-147.86;100.00;46106.90;105893;1257;65498;-46
2023/12/13 04:56:43;;;;;;;32.70;16.90;;;;;;;-147.86;100.00;46104.55;105840;1253;72506;-49
2023/12/13 04:59:10;;;;;;;30.80;15.60;;;;;;;-147.86;100.00;46105.73;105844;1257;60441;-47
2023/12/13 05:01:37;;;;;;;29.10;15.10;;;;;;;-147.86;100.00;46106.12;105813;1254;60437;-45
2023/12/13 05:04:04;;;;;;;29.30;14.30;;;;;;;-147.86;100.00;46107.68;105942;1253;73792;-47
2023/12/13 05:06:30;;;;;;;31.00;13.90;;;;;;;-147.86;100.00;46106.90;105870;1259;63254;-45
2023/12/13 05:08:57;;;;;;;26.60;14.40;;;;;;;-147.86;100.00;46105.73;105809;1254;72545;-45
2023/12/13 05:11:24;;;;;;;27.50;13.90;;;;;;;-147.86;100.00;46105.34;105785;1256;60543;-48
2023/12/13 05:13:51;;;;;;;20.20;12.30;;;;;;;-147.86;100.00;46102.20;105900;1254;60459;-47
2023/12/13 05:16:18;;;;;;;26.70;14.40;;;;;;;-147.86;100.00;46105.34;105980;1258;73782;-47
2023/12/13 05:18:45;;;;;;;22.50;12.40;;;;;;;-147.86;100.00;46107.69;105862;1256;65545;-45
2023/12/13 05:21:12;;;;;;;22.30;12.70;;;;;;;-147.86;100.00;46106.51;105907;1254;72511;-48
2023/12/13 05:23:39;;;;;;;23.10;12.20;;;;;;;-147.86;100.00;46106.90;105859;1257;61103;-46
2023/12/13 05:26:06;;;;;;;21.00;11.50;;;;;;;-147.86;100.00;46107.68;105905;1254;60860;-48
2023/12/13 05:28:33;;;;;;;21.10;10.90;;;;;;;-147.86;100.00;46104.16;105850;1257;73694;-47
2023/12/13 05:31:01;;;;;;;18.40;10.80;;;;;;;-147.86;100.00;46106.51;105868;1258;65612;-47
2023/12/13 05:33:28;;;;;;;16.30;9.30;;;;;;;-147.86;100.00;46105.73;105827;1254;72492;-49
2023/12/13 05:35:55;;;;;;;13.20;8.00;;;;;;;-147.86;100.00;46105.73;105850;1258;61194;-46
2023/12/13 05:38:22;;;;;;;13.80;7.50;;;;;;;-147.86;100.00;46105.73;105825;1254;60418;-46
2023/12/13 05:40:49;;;;;;;11.70;7.60;;;;;;;-147.86;100.00;46104.16;105948;1256;73600;-47
2023/12/13 05:43:16;;;;;;;11.30;7.50;;;;;;;-147.86;100.00;46106.12;105862;1259;65440;-43
2023/12/13 05:45:44;;;;;;;10.50;8.10;;;;;;;-147.86;100.00;46104.55;105880;1254;72603;-49
2023/12/13 05:48:12;;;;;;;12.60;8.20;;;;;;;-147.86;100.00;46106.12;105849;1260;61147;-48
2023/12/13 05:50:39;;;;;;;11.90;7.50;;;;;;;-147.86;100.00;46104.95;105553;1254;60537;-47
2023/12/13 05:53:06;;;;;;;10.60;6.90;;;;;;;-147.86;100.00;46103.38;105561;1254;73839;-50
2023/12/13 05:55:33;;;;;;;12.10;7.50;;;;;;;-147.86;100.00;46107.29;105603;1259;65347;-46
2023/12/13 05:58:00;;;;;;;14.00;7.70;;;;;;;-147.86;100.00;46105.33;105831;1254;72727;-46
2023/12/13 06:00:27;;;;;;;12.30;7.90;;;;;;;-147.86;100.00;46106.12;105774;1256;60961;-45
2023/12/13 06:02:54;;;;;;;12.20;7.90;;;;;;;-147.86;100.00;46105.33;105852;1255;60485;-48
2023/12/13 06:05:24;;;;;;;11.80;8.10;;;;;;;-147.86;100.00;46104.16;105809;1254;73708;-45
2023/12/13 06:07:51;;;;;;;12.90;7.30;;;;;;;-147.86;100.00;46104.54;105829;1257;65375;-46
2023/12/13 06:10:18;;;;;;;11.10;8.00;;;;;;;-147.86;100.00;46101.80;105874;1254;71639;-46
2023/12/13 06:12:45;;;;;;;13.00;8.00;;;;;;;-147.86;100.00;46102.59;105858;1258;60339;-50
2023/12/13 06:15:13;;;;;;;12.00;7.90;;;;;;;-147.86;100.00;46101.80;105863;1254;60537;-47
2023/12/13 06:17:40;;;;;;;12.70;7.50;;;;;;;-147.86;100.00;46102.59;105790;1254;72632;-43
2023/12/13 06:20:08;;;;;;;9.20;6.20;;;;;;;-147.86;100.00;46102.98;105852;1257;65472;-46
2023/12/13 06:22:36;;;;;;;10.40;6.50;;;;;;;-147.86;100.00;46103.76;105828;1258;71674;-48
2023/12/13 06:25:04;;;;;;;10.80;7.50;;;;;;;-147.86;100.00;46102.59;105857;1257;60327;-47
2023/12/13 06:27:31;;;;;;;10.30;6.60;;;;;;;-147.86;100.00;46104.16;105862;1257;60424;-45
2023/12/13 06:29:58;;;;;;;8.30;6.30;;;;;;;-147.86;100.00;46103.77;105836;1257;73834;-49
2023/12/13 06:32:25;;;;;;;10.90;6.60;;;;;;;-147.86;100.00;46102.59;105834;1259;65338;-47
2023/12/13 06:34:52;;;;;;;11.10;6.90;;;;;;;-147.86;100.00;46104.94;105848;1257;72576;-44
2023/12/13 06:37:19;;;;;;;11.10;7.30;;;;;;;-147.86;100.00;46104.94;105841;1259;61184;-46
2023/12/13 06:39:47;;;;;;;13.60;7.90;;;;;;;-147.86;100.00;46105.34;105862;1254;60457;-45
2023/12/13 06:42:17;;;;;;;15.50;8.60;;;;;;;-147.86;100.00;46102.98;105839;1257;73886;-47
2023/12/13 06:44:44;;;;;;;15.20;8.50;;;;;;;-147.86;100.00;46106.12;105885;1257;65622;-47
2023/12/13 06:47:11;;;;;;;14.30;9.10;;;;;;;-147.86;100.00;46104.16;105877;1257;72482;-45
2023/12/13 06:49:38;;;;;;;10.00;6.90;;;;;;;-147.86;100.00;46101.80;105802;1257;61150;-45
2023/12/13 06:52:05;;;;;;;13.60;7.40;;;;;;;-147.86;100.00;46103.38;105900;1254;60447;-47
2023/12/13 06:54:32;;;;;;;10.20;6.90;;;;;;;-147.86;100.00;46101.80;105843;1258;73835;-41
2023/12/13 06:56:59;;;;;;;9.80;7.20;;;;;;;-147.86;100.00;46102.20;105856;1259;65321;-45
2023/12/13 06:59:26;;;;;;;11.80;7.30;;;;;;;-147.86;100.00;46102.20;105863;1254;72011;-48
2023/12/13 07:01:54;;;;;;;10.80;7.30;;;;;;;-147.86;100.00;46100.63;105879;1259;61171;-48
2023/12/13 07:04:20;;;;;;;8.20;6.50;;;;;;;-147.86;100.00;46103.77;105878;1255;60530;-44
2023/12/13 07:06:48;;;;;;;9.90;6.90;;;;;;;-147.86;100.00;46102.98;105810;1257;73792;-46
2023/12/13 07:09:18;;;;;;;11.30;6.80;;;;;;;-147.86;100.00;46103.77;105885;1253;64717;-45
2023/12/13 07:11:46;;;;;;;9.20;6.70;;;;;;;-147.86;100.00;46101.41;105846;1257;72647;-43
2023/12/13 07:14:14;;;;;;;10.20;6.10;;;;;;;-147.86;100.00;46104.16;105850;1259;60415;-43
2023/12/13 07:16:44;;;;;;;11.00;7.70;;;;;;;-147.86;100.00;46101.80;105940;1256;60418;-45
2023/12/13 07:19:11;;;;;;;10.10;6.30;;;;;;;-147.86;100.00;46101.02;105878;1256;73845;-43
2023/12/13 07:21:38;;;;;;;9.40;6.50;;;;;;;-147.86;100.00;46102.20;105818;1257;65433;-44
2023/12/13 07:24:05;;;;;;;9.10;6.60;;;;;;;-147.86;100.00;46102.59;105858;1254;72653;-46
2023/12/13 07:26:32;;;;;;;8.70;6.90;;;;;;;-147.86;100.00;46100.24;105894;1256;60444;-44
2023/12/13 07:28:59;;;;;;;10.00;7.40;;;;;;;-147.86;100.00;46100.63;105850;1253;60550;-46
2023/12/13 07:31:26;;;;;;;10.40;7.10;;;;;;;-147.86;100.00;46102.20;105866;1257;73952;-46
2023/12/13 07:33:53;;;;;;;7.30;5.70;;;;;;;-147.86;100.00;46103.38;105821;1257;65509;-45
2023/12/13 07:36:20;;;;;;;8.80;6.20;;;;;;;-147.86;100.00;46103.77;105948;1259;72610;-45
2023/12/13 07:38:47;;;;;;;11.00;7.20;;;;;;;-147.86;100.00;46102.98;105785;1257;60347;-46
2023/12/13 07:41:14;;;;;;;10.80;6.30;;;;;;;-147.86;100.00;46101.81;105897;1253;60539;-47
2023/12/13 07:43:41;;;;;;;8.50;6.10;;;;;;;-147.86;100.00;46102.59;105861;1257;73829;-46
2023/12/13 07:46:08;;;;;;;8.50;6.30;;;;;;;-147.86;100.00;46102.98;105862;1256;65416;-45
2023/12/13 07:48:36;;;;;;;8.70;5.70;;;;;;;-147.86;100.00;46102.20;105885;1254;72642;-45
2023/12/13 07:51:03;;;;;;;7.00;5.60;;;;;;;-147.86;100.00;46103.77;105947;1257;60843;-47
2023/12/13 07:53:30;;;;;;;7.70;5.20;;;;;;;-147.86;100.00;46102.98;105882;1254;60412;-45
2023/12/13 07:55:57;;;;;;;7.00;5.50;;;;;;;-147.86;100.00;46103.38;105833;1254;73850;-43
2023/12/13 07:58:24;;;;;;;6.70;5.00;;;;;;;-147.86;100.00;46102.98;105843;1259;64501;-46
2023/12/13 08:00:51;;;;;;;6.50;5.50;;;;;;;-147.86;100.00;46099.85;105950;1256;72553;-44
2023/12/13 08:03:18;;;;;;;5.30;4.80;;;;;;;-147.86;100.00;46100.63;105881;1257;61287;-42
2023/12/13 08:05:45;;;;;;;8.50;5.50;;;;;;;-147.86;100.00;46101.02;105831;1254;60520;-48
2023/12/13 08:08:12;;;;;;;5.80;5.20;;;;;;;-147.86;100.00;46102.20;105890;1257;73771;-45
2023/12/13 08:10:41;;;;;;;5.60;5.00;;;;;;;-147.86;100.00;46097.89;105863;1256;65451;-47
2023/12/13 08:13:07;;;;;;;6.80;6.00;;;;;;;-147.86;100.00;46101.41;105847;1259;72679;-43
2023/12/13 08:15:34;;;;;;;8.40;6.20;;;;;;;-147.86;100.00;46102.98;105731;1259;60946;-45
2023/12/13 08:18:02;;;;;;;7.20;5.50;;;;;;;-147.86;100.00;46103.77;105855;1254;60428;-46
2023/12/13 08:20:29;;;;;;;8.90;5.30;;;;;;;-147.86;100.00;46099.45;105685;1255;73779;-48
2023/12/13 08:22:57;;;;;;;7.00;5.40;;;;;;;-147.86;100.00;46101.80;105860;1258;64374;-46
2023/12/13 08:25:24;;;;;;;7.80;5.60;;;;;;;-147.86;100.00;46102.59;105872;1254;72348;-47
2023/12/13 08:27:51;;;;;;;7.80;6.30;;;;;;;-147.86;100.00;46101.41;105855;1259;61109;-48
2023/12/13 08:30:19;;;;;;;9.00;6.50;;;;;;;-147.86;100.00;46100.24;105873;1257;60415;-48
2023/12/13 08:32:46;;;;;;;9.70;6.50;;;;;;;-147.86;100.00;46104.55;105848;1257;72709;-51
2023/12/13 08:35:13;;;;;;;9.00;6.50;;;;;;;-147.86;100.00;46102.98;105852;1254;65596;-53
2023/12/13 08:37:40;;;;;;;7.80;5.90;;;;;;;-147.86;100.00;46099.46;105837;1254;73417;-53
2023/12/13 08:40:08;;;;;;;9.10;6.70;;;;;;;-147.86;100.00;46102.59;105941;1257;60435;-49
2023/12/13 08:42:35;;;;;;;8.60;7.20;;;;;;;-147.86;100.00;46101.80;105874;1260;60322;-49
2023/12/13 08:45:11;;;;;;;12.20;6.90;;;;;;;-147.86;100.00;46099.06;105806;1254;73885;-48
2023/12/13 08:47:39;;;;;;;8.70;6.40;;;;;;;-147.86;100.00;46101.41;105867;1258;65492;-45
2023/12/13 08:50:06;;;;;;;8.80;6.60;;;;;;;-147.86;100.00;46102.59;105825;1260;72591;-46
2023/12/13 08:52:34;;;;;;;8.70;6.70;;;;;;;-147.86;100.00;46101.02;105880;1259;60332;-49
2023/12/13 08:55:01;;;;;;;9.70;6.60;;;;;;;-147.86;100.00;46101.41;105873;1258;60408;-48
2023/12/13 08:57:28;;;;;;;11.50;7.20;;;;;;;-147.86;100.00;46101.80;105876;1254;73762;-49
2023/12/13 08:59:55;;;;;;;11.80;7.40;;;;;;;-147.86;100.00;46102.59;105535;1257;398166;-47
2023/12/13 09:04:02;;;;;;;14.50;7.80;;;;;;;-147.86;100.00;46106.90;102522;1294;603454;-50
2023/12/13 09:06:30;;;;;;;12.00;8.20;;;;;;;-147.86;100.00;46109.64;105180;1266;61124;-46
2023/12/13 09:08:57;;;;;;;12.60;7.80;;;;;;;-147.86;100.00;46111.21;105238;1264;60293;-45
2023/12/13 09:11:24;;;;;;;10.60;7.90;;;;;;;-147.86;100.00;46108.07;105128;1263;72210;-47
2023/12/13 09:13:51;;;;;;;9.30;7.20;;;;;;;-147.86;100.00;46106.51;104864;1267;65486;-49
2023/12/13 09:16:18;;;;;;;11.20;7.70;;;;;;;-147.86;100.00;46106.90;105012;1268;234476;-47
2023/12/13 09:18:46;;;;;;;10.80;8.00;;;;;;;-147.86;100.00;46104.95;105282;1267;59541;-45
2023/12/13 09:21:14;;;;;;;11.50;8.00;;;;;;;-147.86;100.00;46105.73;105245;1263;59222;-44
2023/12/13 09:23:41;;;;;;;9.90;7.20;;;;;;;-147.86;100.00;46102.98;105274;1262;72215;-44
2023/12/13 09:26:13;;;;;;;16.30;7.70;;;;;;;-147.86;100.00;46105.33;105544;1263;65460;-45
2023/12/13 09:28:40;;;;;;;14.50;7.50;;;;;;;-147.86;100.00;46104.95;105539;1260;72665;-45
2023/12/13 09:31:07;;;;;;;9.40;7.10;;;;;;;-147.86;100.00;46103.38;105560;1263;61092;-46
2023/12/13 09:33:34;;;;;;;10.40;7.90;;;;;;;-147.86;100.00;46104.94;105564;1259;60163;-47
2023/12/13 09:36:03;;;;;;;10.00;7.70;;;;;;;-147.86;100.00;46104.94;105492;1259;72898;-46
2023/12/13 09:38:30;;;;;;;11.20;7.60;;;;;;;-147.86;100.00;46104.16;105557;1263;64476;-45
2023/12/13 09:40:57;;;;;;;11.90;8.20;;;;;;;-147.86;100.00;46104.55;105509;1261;72593;-47
2023/12/13 09:43:25;;;;;;;9.50;7.10;;;;;;;-147.86;100.00;46103.77;105546;1262;61191;-46
2023/12/13 09:45:53;;;;;;;11.40;7.80;;;;;;;-147.86;100.00;46105.33;105575;1260;59997;-45
2023/12/13 09:48:23;;;;;;;12.10;7.70;;;;;;;-147.86;100.00;46103.76;105264;1263;71887;-47
2023/12/13 09:50:52;;;;;;;13.60;8.00;;;;;;;-147.86;100.00;46103.38;105244;1267;65559;-47
2023/12/13 09:53:22;;;;;;;12.80;8.30;;;;;;;-147.86;100.00;46104.94;105288;1264;71077;-51
2023/12/13 09:55:48;;;;;;;10.50;7.90;;;;;;;-147.86;100.00;46106.51;105385;1264;61130;-46
2023/12/13 09:58:16;;;;;;;9.90;7.30;;;;;;;-147.86;100.00;46105.73;105340;1260;60221;-47
2023/12/13 10:00:43;;;;;;;10.10;7.20;;;;;;;-147.86;100.00;46105.73;105612;1260;73066;-44
2023/12/13 10:03:10;;;;;;;12.10;7.80;;;;;;;-147.86;100.00;46104.94;105629;1260;65443;-48
2023/12/13 10:05:41;;;;;;;11.90;7.40;;;;;;;-147.86;100.00;46104.16;105623;1256;74285;-45
2023/12/13 10:08:11;;;;;;;13.00;7.80;;;;;;;-147.86;100.00;46104.94;105619;1260;62911;-47
2023/12/13 10:10:38;;;;;;;13.20;7.90;;;;;;;-147.86;100.00;46104.94;105559;1257;60293;-47
2023/12/13 10:13:07;;;;;;;9.80;6.90;;;;;;;-147.86;100.00;46104.16;105629;1257;72930;-47
2023/12/13 10:15:35;;;;;;;9.90;6.80;;;;;;;-147.86;100.00;46106.51;105604;1260;65453;-43
2023/12/13 10:18:03;;;;;;;9.90;7.00;;;;;;;-147.86;100.00;46104.95;105663;1257;74205;-45
2023/12/13 10:20:31;;;;;;;10.20;6.30;;;;;;;-147.86;100.00;46102.59;105615;1260;61240;-49
2023/12/13 10:22:59;;;;;;;10.50;6.50;;;;;;;-147.86;100.00;46104.94;105635;1261;59609;-45
2023/12/13 10:25:28;;;;;;;11.50;6.80;;;;;;;-147.86;100.00;46104.55;105495;1263;72957;-46
2023/12/13 10:27:54;;;;;;;10.10;6.90;;;;;;;-147.86;100.00;46105.73;105374;1264;65467;-45
2023/12/13 10:30:22;;;;;;;13.90;7.40;;;;;;;-147.86;100.00;46104.16;105602;1257;74235;-47
2023/12/13 10:32:50;;;;;;;11.50;7.20;;;;;;;-147.86;100.00;46102.59;105643;1261;61971;-46
2023/12/13 10:35:19;;;;;;;10.20;7.80;;;;;;;-147.86;100.00;46103.38;105648;1257;62038;-44
2023/12/13 10:37:46;;;;;;;13.10;7.60;;;;;;;-147.86;100.00;46105.73;105627;1256;73005;-48
2023/12/13 10:40:17;;;;;;;14.30;7.90;;;;;;;-147.86;100.00;46104.16;105473;1259;64694;-45
2023/12/13 10:42:47;;;;;;;10.10;7.20;;;;;;;-147.86;100.00;46104.94;105289;1257;74240;-45
2023/12/13 10:45:15;;;;;;;9.20;6.40;;;;;;;-147.86;100.00;46108.07;105246;1264;63014;-47
2023/12/13 10:47:45;;;;;;;8.30;6.10;;;;;;;-147.86;100.00;46105.73;105535;1257;59985;-46
2023/12/13 10:50:12;;;;;;;8.50;6.40;;;;;;;-147.86;100.00;46103.37;105592;1256;72997;-47
2023/12/13 10:52:40;;;;;;;7.20;5.70;;;;;;;-147.86;100.00;46104.16;105314;1263;65456;-44
2023/12/13 10:55:08;;;;;;;9.70;7.00;;;;;;;-147.86;100.00;46106.12;105521;1257;72634;-49